Loughman, Florida
Current Conditions -  °F | °C
As of 9:50 PM on Friday 24 Oct 2014 (Local Time) from KISM Reporting Station
Clear Clear  
Wind Chill: 72°   Ceiling: Unl
Heat Index: 72°   Visibility: 10mi
Dew Point: 57°   Wind: 0mph
Humidity: 60%   Direction: NA
Pressure: 29.97"   Gusts: NA
Location:  28.24°N, 81.57°W
Report Text: KISM 250150Z 00000KT 10SM SKC 22/14 A2997 RMK LAST
Loading
Personal Weather Stations






























Interactive Weather Map New forecast layout! Learn more

10-Day Weather Forecast

Advertisements
Track Severe Weather on mobile